sensor_id;sensor_type;location;lat;lon;timestamp;P1;durP1;ratioP1;P2;durP2;ratioP2
13989;SDS011;7069;52.528;13.316;2023-04-06T00:01:19;6.67;;;4.90;;
13989;SDS011;7069;52.528;13.316;2023-04-06T00:03:45;7.33;;;4.83;;
13989;SDS011;7069;52.528;13.316;2023-04-06T00:06:12;6.10;;;4.90;;
13989;SDS011;7069;52.528;13.316;2023-04-06T00:08:38;6.43;;;4.70;;
13989;SDS011;7069;52.528;13.316;2023-04-06T00:11:06;8.00;;;5.83;;
13989;SDS011;7069;52.528;13.316;2023-04-06T00:13:32;7.70;;;5.37;;
13989;SDS011;7069;52.528;13.316;2023-04-06T00:15:59;6.70;;;5.33;;
13989;SDS011;7069;52.528;13.316;2023-04-06T00:18:27;4.83;;;4.40;;
13989;SDS011;7069;52.528;13.316;2023-04-06T00:20:53;4.83;;;4.40;;
13989;SDS011;7069;52.528;13.316;2023-04-06T00:23:20;7.83;;;4.27;;
13989;SDS011;7069;52.528;13.316;2023-04-06T00:25:47;5.20;;;4.70;;
13989;SDS011;7069;52.528;13.316;2023-04-06T00:28:13;7.20;;;4.40;;
13989;SDS011;7069;52.528;13.316;2023-04-06T00:30:40;5.43;;;4.70;;
13989;SDS011;7069;52.528;13.316;2023-04-06T00:33:07;6.23;;;4.60;;
13989;SDS011;7069;52.528;13.316;2023-04-06T00:35:35;7.13;;;4.43;;
13989;SDS011;7069;52.528;13.316;2023-04-06T00:38:01;6.33;;;4.80;;
13989;SDS011;7069;52.528;13.316;2023-04-06T00:40:28;6.03;;;5.17;;
13989;SDS011;7069;52.528;13.316;2023-04-06T00:42:56;6.37;;;4.80;;
13989;SDS011;7069;52.528;13.316;2023-04-06T00:45:22;9.57;;;5.33;;
13989;SDS011;7069;52.528;13.316;2023-04-06T00:47:49;7.37;;;4.83;;
13989;SDS011;7069;52.528;13.316;2023-04-06T00:50:16;5.10;;;4.60;;
13989;SDS011;7069;52.528;13.316;2023-04-06T00:52:44;5.97;;;4.53;;
13989;SDS011;7069;52.528;13.316;2023-04-06T00:55:11;4.83;;;4.00;;
13989;SDS011;7069;52.528;13.316;2023-04-06T00:57:37;9.60;;;5.03;;
13989;SDS011;7069;52.528;13.316;2023-04-06T01:00:05;5.63;;;4.67;;
13989;SDS011;7069;52.528;13.316;2023-04-06T01:02:31;5.77;;;4.40;;
13989;SDS011;7069;52.528;13.316;2023-04-06T01:04:58;5.30;;;4.70;;
13989;SDS011;7069;52.528;13.316;2023-04-06T01:07:25;9.97;;;5.37;;
13989;SDS011;7069;52.528;13.316;2023-04-06T01:09:54;6.10;;;4.40;;
13989;SDS011;7069;52.528;13.316;2023-04-06T01:12:21;5.23;;;4.07;;
13989;SDS011;7069;52.528;13.316;2023-04-06T01:14:47;5.53;;;4.20;;
13989;SDS011;7069;52.528;13.316;2023-04-06T01:17:14;4.97;;;4.30;;
13989;SDS011;7069;52.528;13.316;2023-04-06T01:19:41;6.30;;;4.00;;
13989;SDS011;7069;52.528;13.316;2023-04-06T01:22:14;4.20;;;3.80;;
13989;SDS011;7069;52.528;13.316;2023-04-06T01:24:41;7.03;;;4.20;;
13989;SDS011;7069;52.528;13.316;2023-04-06T01:27:08;4.63;;;4.23;;
13989;SDS011;7069;52.528;13.316;2023-04-06T01:29:35;5.67;;;4.50;;
13989;SDS011;7069;52.528;13.316;2023-04-06T01:32:06;4.03;;;3.37;;
13989;SDS011;7069;52.528;13.316;2023-04-06T01:34:33;4.57;;;4.07;;
13989;SDS011;7069;52.528;13.316;2023-04-06T01:37:00;5.33;;;4.43;;
13989;SDS011;7069;52.528;13.316;2023-04-06T01:39:28;5.20;;;4.40;;
13989;SDS011;7069;52.528;13.316;2023-04-06T01:41:55;6.53;;;4.20;;
13989;SDS011;7069;52.528;13.316;2023-04-06T01:44:21;6.33;;;4.33;;
13989;SDS011;7069;52.528;13.316;2023-04-06T01:46:48;6.77;;;4.20;;
13989;SDS011;7069;52.528;13.316;2023-04-06T01:49:15;6.57;;;4.57;;
13989;SDS011;7069;52.528;13.316;2023-04-06T01:51:41;4.50;;;3.70;;
13989;SDS011;7069;52.528;13.316;2023-04-06T01:54:08;4.77;;;3.80;;
13989;SDS011;7069;52.528;13.316;2023-04-06T01:56:36;4.40;;;4.00;;
13989;SDS011;7069;52.528;13.316;2023-04-06T01:59:03;5.07;;;4.43;;
13989;SDS011;7069;52.528;13.316;2023-04-06T02:01:29;4.83;;;4.10;;
13989;SDS011;7069;52.528;13.316;2023-04-06T02:03:56;5.87;;;3.97;;
13989;SDS011;7069;52.528;13.316;2023-04-06T02:06:23;6.27;;;4.43;;
13989;SDS011;7069;52.528;13.316;2023-04-06T02:08:50;5.17;;;4.23;;
13989;SDS011;7069;52.528;13.316;2023-04-06T02:11:17;4.93;;;3.77;;
13989;SDS011;7069;52.528;13.316;2023-04-06T02:13:45;9.33;;;5.07;;
13989;SDS011;7069;52.528;13.316;2023-04-06T02:16:12;4.40;;;4.00;;
13989;SDS011;7069;52.528;13.316;2023-04-06T02:18:39;6.77;;;3.93;;
13989;SDS011;7069;52.528;13.316;2023-04-06T02:21:06;4.30;;;3.87;;
13989;SDS011;7069;52.528;13.316;2023-04-06T02:23:33;5.37;;;3.97;;
13989;SDS011;7069;52.528;13.316;2023-04-06T02:26:02;5.77;;;4.53;;
13989;SDS011;7069;52.528;13.316;2023-04-06T02:28:29;7.33;;;4.07;;
13989;SDS011;7069;52.528;13.316;2023-04-06T02:30:57;7.60;;;5.33;;
13989;SDS011;7069;52.528;13.316;2023-04-06T02:33:24;7.27;;;4.83;;
13989;SDS011;7069;52.528;13.316;2023-04-06T02:35:51;5.93;;;4.23;;
13989;SDS011;7069;52.528;13.316;2023-04-06T02:38:18;6.60;;;4.27;;
13989;SDS011;7069;52.528;13.316;2023-04-06T02:40:45;6.53;;;5.30;;
13989;SDS011;7069;52.528;13.316;2023-04-06T02:43:12;6.70;;;4.37;;
13989;SDS011;7069;52.528;13.316;2023-04-06T02:45:40;7.97;;;4.63;;
13989;SDS011;7069;52.528;13.316;2023-04-06T02:48:08;9.10;;;5.00;;
13989;SDS011;7069;52.528;13.316;2023-04-06T02:50:35;6.70;;;4.47;;
13989;SDS011;7069;52.528;13.316;2023-04-06T02:53:02;5.37;;;4.43;;
13989;SDS011;7069;52.528;13.316;2023-04-06T02:55:29;4.77;;;4.37;;
13989;SDS011;7069;52.528;13.316;2023-04-06T02:57:56;6.80;;;4.07;;
13989;SDS011;7069;52.528;13.316;2023-04-06T03:00:23;5.77;;;4.03;;
13989;SDS011;7069;52.528;13.316;2023-04-06T03:02:49;4.63;;;4.10;;
13989;SDS011;7069;52.528;13.316;2023-04-06T03:05:18;5.97;;;4.47;;
13989;SDS011;7069;52.528;13.316;2023-04-06T03:07:44;5.97;;;4.33;;
13989;SDS011;7069;52.528;13.316;2023-04-06T03:10:11;6.10;;;4.70;;
13989;SDS011;7069;52.528;13.316;2023-04-06T03:12:38;4.63;;;4.13;;
13989;SDS011;7069;52.528;13.316;2023-04-06T03:15:07;5.57;;;4.80;;
13989;SDS011;7069;52.528;13.316;2023-04-06T03:17:34;5.47;;;4.93;;
13989;SDS011;7069;52.528;13.316;2023-04-06T03:20:01;5.87;;;4.77;;
13989;SDS011;7069;52.528;13.316;2023-04-06T03:22:29;7.43;;;5.57;;
13989;SDS011;7069;52.528;13.316;2023-04-06T03:24:56;5.60;;;4.93;;
13989;SDS011;7069;52.528;13.316;2023-04-06T03:27:23;6.07;;;5.40;;
13989;SDS011;7069;52.528;13.316;2023-04-06T03:29:50;9.47;;;5.10;;
13989;SDS011;7069;52.528;13.316;2023-04-06T03:32:17;5.43;;;4.93;;
13989;SDS011;7069;52.528;13.316;2023-04-06T03:34:44;4.83;;;4.43;;
13989;SDS011;7069;52.528;13.316;2023-04-06T03:37:10;7.87;;;5.27;;
13989;SDS011;7069;52.528;13.316;2023-04-06T03:39:38;7.87;;;4.13;;
13989;SDS011;7069;52.528;13.316;2023-04-06T03:42:06;4.97;;;4.07;;
13989;SDS011;7069;52.528;13.316;2023-04-06T03:44:33;4.70;;;4.27;;
13989;SDS011;7069;52.528;13.316;2023-04-06T03:46:59;4.80;;;4.33;;
13989;SDS011;7069;52.528;13.316;2023-04-06T03:49:27;6.70;;;4.50;;
13989;SDS011;7069;52.528;13.316;2023-04-06T03:51:55;5.07;;;4.57;;
13989;SDS011;7069;52.528;13.316;2023-04-06T03:54:22;4.60;;;3.87;;
13989;SDS011;7069;52.528;13.316;2023-04-06T03:56:50;5.90;;;4.80;;
13989;SDS011;7069;52.528;13.316;2023-04-06T03:59:17;4.67;;;4.13;;
13989;SDS011;7069;52.528;13.316;2023-04-06T04:01:44;5.67;;;4.43;;
13989;SDS011;7069;52.528;13.316;2023-04-06T04:04:10;8.90;;;5.00;;
13989;SDS011;7069;52.528;13.316;2023-04-06T04:06:37;5.30;;;4.80;;
13989;SDS011;7069;52.528;13.316;2023-04-06T04:09:05;5.27;;;4.70;;
13989;SDS011;7069;52.528;13.316;2023-04-06T04:11:32;5.33;;;4.77;;
13989;SDS011;7069;52.528;13.316;2023-04-06T04:14:00;6.23;;;5.07;;
13989;SDS011;7069;52.528;13.316;2023-04-06T04:16:27;7.57;;;5.53;;
13989;SDS011;7069;52.528;13.316;2023-04-06T04:18:57;5.20;;;4.70;;
13989;SDS011;7069;52.528;13.316;2023-04-06T04:21:24;6.30;;;5.30;;
13989;SDS011;7069;52.528;13.316;2023-04-06T04:23:51;7.43;;;4.83;;
13989;SDS011;7069;52.528;13.316;2023-04-06T04:26:19;5.47;;;4.97;;
13989;SDS011;7069;52.528;13.316;2023-04-06T04:28:46;5.17;;;4.70;;
13989;SDS011;7069;52.528;13.316;2023-04-06T04:31:14;5.73;;;4.87;;
13989;SDS011;7069;52.528;13.316;2023-04-06T04:33:43;6.57;;;5.97;;
13989;SDS011;7069;52.528;13.316;2023-04-06T04:36:10;7.90;;;5.73;;
13989;SDS011;7069;52.528;13.316;2023-04-06T04:38:36;7.10;;;5.07;;
13989;SDS011;7069;52.528;13.316;2023-04-06T04:41:03;6.73;;;4.33;;
13989;SDS011;7069;52.528;13.316;2023-04-06T04:43:30;9.43;;;5.07;;
13989;SDS011;7069;52.528;13.316;2023-04-06T04:45:57;8.20;;;5.60;;
13989;SDS011;7069;52.528;13.316;2023-04-06T04:48:26;6.53;;;5.73;;
13989;SDS011;7069;52.528;13.316;2023-04-06T04:50:53;6.07;;;5.47;;
13989;SDS011;7069;52.528;13.316;2023-04-06T04:53:20;12.20;;;6.40;;
13989;SDS011;7069;52.528;13.316;2023-04-06T04:55:47;6.73;;;5.97;;
13989;SDS011;7069;52.528;13.316;2023-04-06T04:58:13;10.37;;;6.27;;
13989;SDS011;7069;52.528;13.316;2023-04-06T05:00:41;7.53;;;6.63;;
13989;SDS011;7069;52.528;13.316;2023-04-06T05:03:08;6.50;;;5.80;;
13989;SDS011;7069;52.528;13.316;2023-04-06T05:05:37;6.93;;;6.30;;
13989;SDS011;7069;52.528;13.316;2023-04-06T05:08:04;7.47;;;6.77;;
13989;SDS011;7069;52.528;13.316;2023-04-06T05:10:30;8.43;;;7.17;;
13989;SDS011;7069;52.528;13.316;2023-04-06T05:12:57;10.20;;;7.07;;
13989;SDS011;7069;52.528;13.316;2023-04-06T05:15:24;7.43;;;6.73;;
13989;SDS011;7069;52.528;13.316;2023-04-06T05:17:51;8.23;;;6.80;;
13989;SDS011;7069;52.528;13.316;2023-04-06T05:20:17;8.10;;;7.20;;
13989;SDS011;7069;52.528;13.316;2023-04-06T05:22:45;8.67;;;7.23;;
13989;SDS011;7069;52.528;13.316;2023-04-06T05:25:12;7.03;;;6.40;;
13989;SDS011;7069;52.528;13.316;2023-04-06T05:27:39;8.30;;;7.43;;
13989;SDS011;7069;52.528;13.316;2023-04-06T05:30:06;8.63;;;7.77;;
13989;SDS011;7069;52.528;13.316;2023-04-06T05:32:33;7.77;;;7.00;;
13989;SDS011;7069;52.528;13.316;2023-04-06T05:35:00;7.87;;;7.07;;
13989;SDS011;7069;52.528;13.316;2023-04-06T05:37:27;9.47;;;7.40;;
13989;SDS011;7069;52.528;13.316;2023-04-06T05:39:55;9.17;;;7.53;;
13989;SDS011;7069;52.528;13.316;2023-04-06T05:42:22;8.60;;;7.70;;
13989;SDS011;7069;52.528;13.316;2023-04-06T05:44:48;8.07;;;7.30;;
13989;SDS011;7069;52.528;13.316;2023-04-06T05:47:15;8.57;;;6.67;;
13989;SDS011;7069;52.528;13.316;2023-04-06T05:49:50;7.77;;;6.87;;
13989;SDS011;7069;52.528;13.316;2023-04-06T05:52:20;10.20;;;7.50;;
13989;SDS011;7069;52.528;13.316;2023-04-06T05:54:47;10.00;;;7.57;;
13989;SDS011;7069;52.528;13.316;2023-04-06T05:57:15;8.17;;;7.30;;
13989;SDS011;7069;52.528;13.316;2023-04-06T05:59:42;9.07;;;8.20;;
13989;SDS011;7069;52.528;13.316;2023-04-06T06:02:09;8.47;;;7.07;;
13989;SDS011;7069;52.528;13.316;2023-04-06T06:04:36;8.40;;;7.60;;
13989;SDS011;7069;52.528;13.316;2023-04-06T06:07:02;9.87;;;8.50;;
13989;SDS011;7069;52.528;13.316;2023-04-06T06:09:30;8.70;;;7.80;;
13989;SDS011;7069;52.528;13.316;2023-04-06T06:11:57;8.30;;;7.47;;
13989;SDS011;7069;52.528;13.316;2023-04-06T06:14:25;9.17;;;8.20;;
13989;SDS011;7069;52.528;13.316;2023-04-06T06:16:53;9.80;;;7.43;;
13989;SDS011;7069;52.528;13.316;2023-04-06T06:19:20;9.30;;;7.27;;
13989;SDS011;7069;52.528;13.316;2023-04-06T06:21:47;7.80;;;7.10;;
13989;SDS011;7069;52.528;13.316;2023-04-06T06:24:14;10.67;;;8.40;;
13989;SDS011;7069;52.528;13.316;2023-04-06T06:26:41;7.93;;;7.20;;
13989;SDS011;7069;52.528;13.316;2023-04-06T06:29:08;9.53;;;7.90;;
13989;SDS011;7069;52.528;13.316;2023-04-06T06:31:36;9.37;;;8.43;;
13989;SDS011;7069;52.528;13.316;2023-04-06T06:34:03;9.97;;;8.07;;
13989;SDS011;7069;52.528;13.316;2023-04-06T06:36:30;10.87;;;8.10;;
13989;SDS011;7069;52.528;13.316;2023-04-06T06:38:57;10.10;;;8.20;;
13989;SDS011;7069;52.528;13.316;2023-04-06T06:41:23;9.67;;;8.67;;
13989;SDS011;7069;52.528;13.316;2023-04-06T06:43:51;8.93;;;8.03;;
13989;SDS011;7069;52.528;13.316;2023-04-06T06:46:18;10.53;;;7.43;;
13989;SDS011;7069;52.528;13.316;2023-04-06T06:48:46;8.27;;;7.43;;
13989;SDS011;7069;52.528;13.316;2023-04-06T06:51:13;7.67;;;6.87;;
13989;SDS011;7069;52.528;13.316;2023-04-06T06:53:40;7.20;;;6.43;;
13989;SDS011;7069;52.528;13.316;2023-04-06T06:56:06;8.23;;;7.20;;
13989;SDS011;7069;52.528;13.316;2023-04-06T06:58:33;9.47;;;7.90;;
13989;SDS011;7069;52.528;13.316;2023-04-06T07:01:00;8.27;;;6.77;;
13989;SDS011;7069;52.528;13.316;2023-04-06T07:03:30;8.63;;;7.73;;
13989;SDS011;7069;52.528;13.316;2023-04-06T07:05:58;9.17;;;7.63;;
13989;SDS011;7069;52.528;13.316;2023-04-06T07:08:25;7.83;;;7.07;;
13989;SDS011;7069;52.528;13.316;2023-04-06T07:10:52;11.50;;;6.73;;
13989;SDS011;7069;52.528;13.316;2023-04-06T07:13:21;12.27;;;7.13;;
13989;SDS011;7069;52.528;13.316;2023-04-06T07:15:48;9.73;;;7.00;;
13989;SDS011;7069;52.528;13.316;2023-04-06T07:18:15;7.13;;;6.53;;
13989;SDS011;7069;52.528;13.316;2023-04-06T07:20:41;9.00;;;6.87;;
13989;SDS011;7069;52.528;13.316;2023-04-06T07:23:10;8.03;;;7.20;;
13989;SDS011;7069;52.528;13.316;2023-04-06T07:25:36;6.80;;;5.80;;
13989;SDS011;7069;52.528;13.316;2023-04-06T07:28:03;9.33;;;6.27;;
13989;SDS011;7069;52.528;13.316;2023-04-06T07:30:30;8.43;;;6.10;;
13989;SDS011;7069;52.528;13.316;2023-04-06T07:33:00;6.70;;;5.47;;
13989;SDS011;7069;52.528;13.316;2023-04-06T07:35:26;8.03;;;5.60;;
13989;SDS011;7069;52.528;13.316;2023-04-06T07:37:55;8.00;;;5.63;;
13989;SDS011;7069;52.528;13.316;2023-04-06T07:40:23;8.13;;;5.37;;
13989;SDS011;7069;52.528;13.316;2023-04-06T07:42:51;6.37;;;5.40;;
13989;SDS011;7069;52.528;13.316;2023-04-06T07:45:17;6.07;;;5.47;;
13989;SDS011;7069;52.528;13.316;2023-04-06T07:47:44;5.83;;;5.33;;
13989;SDS011;7069;52.528;13.316;2023-04-06T07:50:11;7.00;;;4.40;;
13989;SDS011;7069;52.528;13.316;2023-04-06T07:52:38;6.77;;;5.17;;
13989;SDS011;7069;52.528;13.316;2023-04-06T07:55:06;5.47;;;4.97;;
13989;SDS011;7069;52.528;13.316;2023-04-06T07:57:34;5.13;;;4.63;;
13989;SDS011;7069;52.528;13.316;2023-04-06T08:00:01;6.13;;;5.50;;
13989;SDS011;7069;52.528;13.316;2023-04-06T08:02:29;5.30;;;4.70;;
13989;SDS011;7069;52.528;13.316;2023-04-06T08:04:55;6.00;;;5.07;;
13989;SDS011;7069;52.528;13.316;2023-04-06T08:07:22;6.60;;;4.20;;
13989;SDS011;7069;52.528;13.316;2023-04-06T08:09:55;7.30;;;5.00;;
13989;SDS011;7069;52.528;13.316;2023-04-06T08:12:22;5.23;;;4.37;;
13989;SDS011;7069;52.528;13.316;2023-04-06T08:14:50;4.97;;;4.47;;
13989;SDS011;7069;52.528;13.316;2023-04-06T08:17:16;5.60;;;4.27;;
13989;SDS011;7069;52.528;13.316;2023-04-06T08:19:43;7.00;;;4.13;;
13989;SDS011;7069;52.528;13.316;2023-04-06T08:22:10;4.37;;;3.73;;
13989;SDS011;7069;52.528;13.316;2023-04-06T08:24:37;3.87;;;3.20;;
13989;SDS011;7069;52.528;13.316;2023-04-06T08:27:04;5.10;;;3.13;;
13989;SDS011;7069;52.528;13.316;2023-04-06T08:29:30;5.60;;;2.90;;
13989;SDS011;7069;52.528;13.316;2023-04-06T08:31:58;4.10;;;3.00;;
13989;SDS011;7069;52.528;13.316;2023-04-06T08:34:25;4.93;;;3.03;;
13989;SDS011;7069;52.528;13.316;2023-04-06T08:36:52;2.53;;;2.23;;
13989;SDS011;7069;52.528;13.316;2023-04-06T08:39:18;3.73;;;2.50;;
13989;SDS011;7069;52.528;13.316;2023-04-06T08:41:50;6.07;;;2.63;;
13989;SDS011;7069;52.528;13.316;2023-04-06T08:44:17;3.40;;;3.10;;
13989;SDS011;7069;52.528;13.316;2023-04-06T08:46:44;3.27;;;2.47;;
13989;SDS011;7069;52.528;13.316;2023-04-06T08:49:12;2.33;;;2.07;;
13989;SDS011;7069;52.528;13.316;2023-04-06T08:51:40;4.00;;;2.77;;
13989;SDS011;7069;52.528;13.316;2023-04-06T08:54:08;4.37;;;2.83;;
13989;SDS011;7069;52.528;13.316;2023-04-06T08:56:37;4.37;;;3.00;;
13989;SDS011;7069;52.528;13.316;2023-04-06T08:59:04;4.17;;;2.63;;
13989;SDS011;7069;52.528;13.316;2023-04-06T09:01:31;3.87;;;2.40;;
13989;SDS011;7069;52.528;13.316;2023-04-06T09:04:02;3.00;;;2.10;;
13989;SDS011;7069;52.528;13.316;2023-04-06T09:06:35;2.30;;;2.10;;
13989;SDS011;7069;52.528;13.316;2023-04-06T09:09:03;3.00;;;2.30;;
13989;SDS011;7069;52.528;13.316;2023-04-06T09:11:40;5.97;;;2.40;;
13989;SDS011;7069;52.528;13.316;2023-04-06T09:14:07;1.93;;;1.70;;
13989;SDS011;7069;52.528;13.316;2023-04-06T09:16:38;2.30;;;2.10;;
13989;SDS011;7069;52.528;13.316;2023-04-06T09:19:05;2.43;;;2.23;;
13989;SDS011;7069;52.528;13.316;2023-04-06T09:21:32;5.37;;;3.20;;
13989;SDS011;7069;52.528;13.316;2023-04-06T09:24:00;2.10;;;1.90;;
13989;SDS011;7069;52.528;13.316;2023-04-06T09:26:28;1.63;;;1.53;;
13989;SDS011;7069;52.528;13.316;2023-04-06T09:28:56;2.27;;;1.97;;
13989;SDS011;7069;52.528;13.316;2023-04-06T09:31:24;3.17;;;1.73;;
13989;SDS011;7069;52.528;13.316;2023-04-06T09:33:52;2.00;;;1.80;;
13989;SDS011;7069;52.528;13.316;2023-04-06T09:36:18;2.27;;;2.07;;
13989;SDS011;7069;52.528;13.316;2023-04-06T09:38:51;2.70;;;2.00;;
13989;SDS011;7069;52.528;13.316;2023-04-06T09:41:24;2.93;;;2.47;;
13989;SDS011;7069;52.528;13.316;2023-04-06T09:43:51;3.03;;;2.13;;
13989;SDS011;7069;52.528;13.316;2023-04-06T09:46:18;2.90;;;2.30;;
13989;SDS011;7069;52.528;13.316;2023-04-06T09:48:47;2.30;;;2.10;;
13989;SDS011;7069;52.528;13.316;2023-04-06T09:51:14;2.23;;;1.50;;
13989;SDS011;7069;52.528;13.316;2023-04-06T09:53:41;2.63;;;2.30;;
13989;SDS011;7069;52.528;13.316;2023-04-06T09:56:09;3.03;;;2.57;;
13989;SDS011;7069;52.528;13.316;2023-04-06T09:58:39;2.60;;;2.40;;
13989;SDS011;7069;52.528;13.316;2023-04-06T10:01:08;3.90;;;2.40;;
13989;SDS011;7069;52.528;13.316;2023-04-06T10:03:37;3.00;;;2.10;;
13989;SDS011;7069;52.528;13.316;2023-04-06T10:06:07;1.92;;;1.77;;
13989;SDS011;7069;52.528;13.316;2023-04-06T10:08:37;2.87;;;2.40;;
13989;SDS011;7069;52.528;13.316;2023-04-06T10:11:05;2.35;;;2.15;;
13989;SDS011;7069;52.528;13.316;2023-04-06T10:13:32;2.50;;;2.00;;
13989;SDS011;7069;52.528;13.316;2023-04-06T10:16:01;3.22;;;2.78;;
13989;SDS011;7069;52.528;13.316;2023-04-06T10:18:28;6.35;;;2.25;;
13989;SDS011;7069;52.528;13.316;2023-04-06T10:20:56;3.90;;;2.53;;
13989;SDS011;7069;52.528;13.316;2023-04-06T10:23:26;2.20;;;1.58;;
13989;SDS011;7069;52.528;13.316;2023-04-06T10:25:53;1.85;;;1.75;;
13989;SDS011;7069;52.528;13.316;2023-04-06T10:28:20;1.50;;;1.40;;
13989;SDS011;7069;52.528;13.316;2023-04-06T10:30:47;4.47;;;2.25;;
13989;SDS011;7069;52.528;13.316;2023-04-06T10:33:15;3.20;;;2.45;;
13989;SDS011;7069;52.528;13.316;2023-04-06T10:35:42;3.45;;;2.22;;
13989;SDS011;7069;52.528;13.316;2023-04-06T10:38:09;3.70;;;3.30;;
13989;SDS011;7069;52.528;13.316;2023-04-06T10:40:38;2.80;;;2.47;;
13989;SDS011;7069;52.528;13.316;2023-04-06T10:43:08;3.63;;;2.30;;
13989;SDS011;7069;52.528;13.316;2023-04-06T10:45:35;2.67;;;2.35;;
13989;SDS011;7069;52.528;13.316;2023-04-06T10:48:12;2.10;;;1.88;;
13989;SDS011;7069;52.528;13.316;2023-04-06T10:50:40;2.75;;;1.83;;
13989;SDS011;7069;52.528;13.316;2023-04-06T10:53:07;2.55;;;1.88;;
13989;SDS011;7069;52.528;13.316;2023-04-06T10:55:34;2.25;;;1.92;;
13989;SDS011;7069;52.528;13.316;2023-04-06T10:58:00;2.90;;;2.30;;
13989;SDS011;7069;52.528;13.316;2023-04-06T11:00:27;3.42;;;2.35;;
13989;SDS011;7069;52.528;13.316;2023-04-06T11:02:58;3.45;;;2.20;;
13989;SDS011;7069;52.528;13.316;2023-04-06T11:05:25;2.22;;;2.03;;
13989;SDS011;7069;52.528;13.316;2023-04-06T11:07:53;2.38;;;2.08;;
13989;SDS011;7069;52.528;13.316;2023-04-06T11:10:21;6.43;;;1.95;;
13989;SDS011;7069;52.528;13.316;2023-04-06T11:12:52;3.33;;;2.03;;
13989;SDS011;7069;52.528;13.316;2023-04-06T11:15:19;3.70;;;2.58;;
13989;SDS011;7069;52.528;13.316;2023-04-06T11:17:46;4.05;;;2.28;;
13989;SDS011;7069;52.528;13.316;2023-04-06T11:20:14;3.63;;;2.00;;
13989;SDS011;7069;52.528;13.316;2023-04-06T11:22:50;2.40;;;2.20;;
13989;SDS011;7069;52.528;13.316;2023-04-06T11:25:18;2.23;;;1.73;;
13989;SDS011;7069;52.528;13.316;2023-04-06T11:27:45;3.65;;;1.77;;
13989;SDS011;7069;52.528;13.316;2023-04-06T11:30:12;2.85;;;2.17;;
13989;SDS011;7069;52.528;13.316;2023-04-06T11:32:39;3.00;;;2.58;;
13989;SDS011;7069;52.528;13.316;2023-04-06T11:35:07;2.42;;;2.22;;
13989;SDS011;7069;52.528;13.316;2023-04-06T11:37:33;4.10;;;3.05;;
13989;SDS011;7069;52.528;13.316;2023-04-06T11:40:00;2.42;;;2.22;;
13989;SDS011;7069;52.528;13.316;2023-04-06T11:42:28;2.55;;;2.15;;
13989;SDS011;7069;52.528;13.316;2023-04-06T11:44:56;1.80;;;1.70;;
13989;SDS011;7069;52.528;13.316;2023-04-06T11:47:27;2.15;;;1.90;;
13989;SDS011;7069;52.528;13.316;2023-04-06T11:49:53;2.58;;;1.80;;
13989;SDS011;7069;52.528;13.316;2023-04-06T11:52:21;3.47;;;2.03;;
13989;SDS011;7069;52.528;13.316;2023-04-06T11:54:48;2.95;;;2.13;;
13989;SDS011;7069;52.528;13.316;2023-04-06T11:57:16;2.47;;;2.17;;
13989;SDS011;7069;52.528;13.316;2023-04-06T11:59:44;2.20;;;2.00;;
13989;SDS011;7069;52.528;13.316;2023-04-06T12:02:11;3.97;;;2.28;;
13989;SDS011;7069;52.528;13.316;2023-04-06T12:04:38;2.67;;;2.47;;
13989;SDS011;7069;52.528;13.316;2023-04-06T12:07:05;3.65;;;2.03;;
13989;SDS011;7069;52.528;13.316;2023-04-06T12:09:31;2.92;;;2.55;;
13989;SDS011;7069;52.528;13.316;2023-04-06T12:11:59;4.95;;;2.60;;
13989;SDS011;7069;52.528;13.316;2023-04-06T12:14:26;2.38;;;2.17;;
13989;SDS011;7069;52.528;13.316;2023-04-06T12:16:54;2.50;;;1.85;;
13989;SDS011;7069;52.528;13.316;2023-04-06T12:19:21;2.55;;;2.35;;
13989;SDS011;7069;52.528;13.316;2023-04-06T12:21:53;3.20;;;2.47;;
13989;SDS011;7069;52.528;13.316;2023-04-06T12:24:20;3.05;;;2.47;;
13989;SDS011;7069;52.528;13.316;2023-04-06T12:26:47;5.30;;;2.70;;
13989;SDS011;7069;52.528;13.316;2023-04-06T12:29:13;3.08;;;2.80;;
13989;SDS011;7069;52.528;13.316;2023-04-06T12:31:40;4.70;;;2.72;;
13989;SDS011;7069;52.528;13.316;2023-04-06T12:34:11;3.15;;;2.85;;
13989;SDS011;7069;52.528;13.316;2023-04-06T12:36:37;2.72;;;2.50;;
13989;SDS011;7069;52.528;13.316;2023-04-06T12:39:04;2.45;;;2.25;;
13989;SDS011;7069;52.528;13.316;2023-04-06T12:41:31;3.00;;;2.22;;
13989;SDS011;7069;52.528;13.316;2023-04-06T12:43:58;2.65;;;2.33;;
13989;SDS011;7069;52.528;13.316;2023-04-06T12:46:25;2.15;;;2.00;;
13989;SDS011;7069;52.528;13.316;2023-04-06T12:48:52;3.05;;;2.50;;
13989;SDS011;7069;52.528;13.316;2023-04-06T12:51:21;3.10;;;2.60;;
13989;SDS011;7069;52.528;13.316;2023-04-06T12:53:48;2.72;;;2.53;;
13989;SDS011;7069;52.528;13.316;2023-04-06T12:56:16;2.85;;;2.58;;
13989;SDS011;7069;52.528;13.316;2023-04-06T12:58:43;2.90;;;2.50;;
13989;SDS011;7069;52.528;13.316;2023-04-06T13:01:10;2.63;;;2.40;;
13989;SDS011;7069;52.528;13.316;2023-04-06T13:03:37;3.58;;;2.70;;
13989;SDS011;7069;52.528;13.316;2023-04-06T13:06:05;4.70;;;2.20;;
13989;SDS011;7069;52.528;13.316;2023-04-06T13:08:34;4.55;;;2.72;;
13989;SDS011;7069;52.528;13.316;2023-04-06T13:11:02;3.28;;;2.92;;
13989;SDS011;7069;52.528;13.316;2023-04-06T13:13:29;2.28;;;2.15;;
13989;SDS011;7069;52.528;13.316;2023-04-06T13:15:59;4.40;;;3.22;;
13989;SDS011;7069;52.528;13.316;2023-04-06T13:18:26;2.42;;;2.22;;
13989;SDS011;7069;52.528;13.316;2023-04-06T13:20:52;5.13;;;2.95;;
13989;SDS011;7069;52.528;13.316;2023-04-06T13:23:20;4.05;;;2.58;;
13989;SDS011;7069;52.528;13.316;2023-04-06T13:25:48;2.70;;;2.35;;
13989;SDS011;7069;52.528;13.316;2023-04-06T13:28:22;2.72;;;2.53;;
13989;SDS011;7069;52.528;13.316;2023-04-06T13:30:49;2.95;;;2.67;;
13989;SDS011;7069;52.528;13.316;2023-04-06T13:33:16;3.05;;;2.67;;
13989;SDS011;7069;52.528;13.316;2023-04-06T13:35:44;2.92;;;2.70;;
13989;SDS011;7069;52.528;13.316;2023-04-06T13:38:10;3.22;;;2.92;;
13989;SDS011;7069;52.528;13.316;2023-04-06T13:40:38;5.95;;;2.72;;
13989;SDS011;7069;52.528;13.316;2023-04-06T13:43:06;2.60;;;2.40;;
13989;SDS011;7069;52.528;13.316;2023-04-06T13:45:33;3.05;;;2.85;;
13989;SDS011;7069;52.528;13.316;2023-04-06T13:47:59;4.63;;;2.97;;
13989;SDS011;7069;52.528;13.316;2023-04-06T13:50:26;2.75;;;2.47;;
13989;SDS011;7069;52.528;13.316;2023-04-06T13:52:53;4.40;;;3.22;;
13989;SDS011;7069;52.528;13.316;2023-04-06T13:55:20;2.97;;;2.78;;
13989;SDS011;7069;52.528;13.316;2023-04-06T13:57:46;3.00;;;2.80;;
13989;SDS011;7069;52.528;13.316;2023-04-06T14:00:14;3.22;;;2.78;;
13989;SDS011;7069;52.528;13.316;2023-04-06T14:02:41;4.65;;;2.83;;
13989;SDS011;7069;52.528;13.316;2023-04-06T14:05:08;2.63;;;2.40;;
13989;SDS011;7069;52.528;13.316;2023-04-06T14:07:35;3.75;;;2.83;;
13989;SDS011;7069;52.528;13.316;2023-04-06T14:10:03;2.92;;;2.63;;
13989;SDS011;7069;52.528;13.316;2023-04-06T14:12:30;3.90;;;2.85;;
13989;SDS011;7069;52.528;13.316;2023-04-06T14:14:57;3.80;;;3.10;;
13989;SDS011;7069;52.528;13.316;2023-04-06T14:17:25;3.40;;;3.10;;
13989;SDS011;7069;52.528;13.316;2023-04-06T14:19:52;3.00;;;2.70;;
13989;SDS011;7069;52.528;13.316;2023-04-06T14:22:18;3.53;;;3.17;;
13989;SDS011;7069;52.528;13.316;2023-04-06T14:24:45;3.22;;;2.95;;
13989;SDS011;7069;52.528;13.316;2023-04-06T14:27:12;2.90;;;2.70;;
13989;SDS011;7069;52.528;13.316;2023-04-06T14:29:39;4.72;;;2.28;;
13989;SDS011;7069;52.528;13.316;2023-04-06T14:32:05;2.47;;;1.88;;
13989;SDS011;7069;52.528;13.316;2023-04-06T14:34:33;4.88;;;2.55;;
13989;SDS011;7069;52.528;13.316;2023-04-06T14:37:03;5.18;;;2.75;;
13989;SDS011;7069;52.528;13.316;2023-04-06T14:39:30;3.17;;;2.15;;
13989;SDS011;7069;52.528;13.316;2023-04-06T14:41:57;4.32;;;2.83;;
13989;SDS011;7069;52.528;13.316;2023-04-06T14:44:23;2.35;;;2.17;;
13989;SDS011;7069;52.528;13.316;2023-04-06T14:46:50;4.93;;;2.38;;
13989;SDS011;7069;52.528;13.316;2023-04-06T14:49:17;3.25;;;2.85;;